Time;durP1;ratioP1;P1;durP2;ratioP2;P2;SDS_P1;SDS_P2;PMS_P1;PMS_P2;Temp;Humidity;BMP_temperature;BMP_pressure;BME280_temperature;BME280_humidity;BME280_pressure;Samples;Min_cycle;Max_cycle;Signal;HPM_P1;HPM_P2
2022/05/13 00:00:06;;;;;;;4.18;1.10;;;15.50;85.80;;;;;;4991471;28;20043;-69
2022/05/13 00:02:34;;;;;;;4.40;1.00;;;15.40;86.20;;;;;;4991346;28;20407;-69
2022/05/13 00:05:01;;;;;;;5.50;1.30;;;15.30;86.60;;;;;;4992818;28;20026;-68
2022/05/13 00:07:27;;;;;;;6.55;1.38;;;15.30;87.00;;;;;;4992203;28;20033;-69
2022/05/13 00:10:01;;;;;;;3.85;1.30;;;15.10;87.20;;;;;;4992097;28;20038;-68
2022/05/13 00:12:31;;;;;;;5.85;1.30;;;15.10;87.60;;;;;;4992415;28;20110;-69
2022/05/13 00:15:00;;;;;;;5.53;1.60;;;15.00;87.80;;;;;;5008151;23;20158;-67
2022/05/13 00:17:27;;;;;;;6.45;1.45;;;15.00;88.20;;;;;;4990891;28;20371;-67
2022/05/13 00:19:54;;;;;;;5.88;1.20;;;14.90;88.40;;;;;;4991869;28;20513;-67
2022/05/13 00:22:21;;;;;;;3.40;1.17;;;14.90;88.50;;;;;;4992034;28;20030;-67
2022/05/13 00:24:47;;;;;;;4.32;1.20;;;14.90;88.60;;;;;;4992079;28;20085;-67
2022/05/13 00:27:13;;;;;;;4.30;1.08;;;14.90;88.70;;;;;;4992985;28;20398;-66
2022/05/13 00:29:39;;;;;;;4.03;1.42;;;14.80;89.00;;;;;;4991794;28;20046;-67
2022/05/13 00:32:06;;;;;;;6.15;1.42;;;14.70;89.10;;;;;;4991903;28;20040;-66
2022/05/13 00:34:33;;;;;;;5.13;1.10;;;14.60;89.20;;;;;;4991950;28;20487;-66
2022/05/13 00:37:00;;;;;;;6.15;1.27;;;14.60;89.40;;;;;;4991717;28;20566;-66
2022/05/13 00:39:26;;;;;;;5.43;1.35;;;14.60;89.60;;;;;;4991805;28;20034;-66
2022/05/13 00:41:53;;;;;;;6.70;1.52;;;14.50;90.00;;;;;;4991826;28;20073;-66
2022/05/13 00:44:21;;;;;;;6.20;1.40;;;14.50;90.00;;;;;;4991705;28;20060;-67
2022/05/13 00:46:48;;;;;;;4.35;1.42;;;14.50;90.20;;;;;;4991651;28;20081;-67
2022/05/13 00:49:16;;;;;;;4.90;1.70;;;14.40;90.40;;;;;;4991747;28;20038;-65
2022/05/13 00:51:47;;;;;;;6.43;1.50;;;14.40;90.60;;;;;;4991569;28;20031;-66
2022/05/13 00:54:15;;;;;;;4.82;1.40;;;14.40;90.70;;;;;;5000435;28;20030;-67
2022/05/13 00:56:47;;;;;;;4.18;1.30;;;14.30;90.90;;;;;;4998302;28;20376;-66
2022/05/13 00:59:16;;;;;;;7.75;1.40;;;14.30;91.10;;;;;;4991942;28;20026;-66
2022/05/13 01:01:42;;;;;;;7.28;1.67;;;14.30;91.10;;;;;;4991553;28;20142;-66
2022/05/13 01:04:11;;;;;;;5.50;1.38;;;14.20;91.30;;;;;;4991606;28;20060;-67
2022/05/13 01:06:41;;;;;;;4.85;1.40;;;14.20;91.50;;;;;;4991709;28;20061;-66
2022/05/13 01:09:07;;;;;;;5.13;1.50;;;14.10;91.60;;;;;;4991473;28;20376;-67
2022/05/13 01:11:37;;;;;;;4.90;1.60;;;14.10;92.10;;;;;;4991466;28;20542;-66
2022/05/13 01:14:11;;;;;;;6.57;1.50;;;14.00;91.80;;;;;;4991407;28;20041;-67
2022/05/13 01:19:22;;;;;;;3.45;1.75;;;14.00;92.00;;;;;;4991348;28;20031;-67
2022/05/13 01:21:49;;;;;;;2.80;1.40;;;14.00;91.90;;;;;;4998092;28;20404;-67
2022/05/13 01:24:17;;;;;;;5.28;1.50;;;14.00;92.10;;;;;;4999015;28;20038;-67
2022/05/13 01:26:43;;;;;;;5.60;1.48;;;14.00;92.20;;;;;;4991199;28;20035;-65
2022/05/13 01:29:09;;;;;;;4.53;1.70;;;13.90;92.40;;;;;;4991320;28;20498;-66
2022/05/13 01:31:39;;;;;;;5.40;1.83;;;13.90;92.60;;;;;;4991394;28;20113;-65
2022/05/13 01:34:10;;;;;;;10.13;1.85;;;13.80;92.60;;;;;;4991134;28;20499;-66
2022/05/13 01:36:38;;;;;;;6.28;1.60;;;13.70;92.80;;;;;;4992637;28;20026;-66
2022/05/13 01:39:04;;;;;;;6.38;1.63;;;13.60;92.90;;;;;;4991170;28;20026;-67
2022/05/13 01:41:30;;;;;;;6.07;1.60;;;13.60;93.00;;;;;;4991340;28;20078;-67
2022/05/13 01:43:57;;;;;;;5.38;1.60;;;13.50;93.10;;;;;;4991258;28;20117;-66
2022/05/13 01:46:24;;;;;;;5.22;2.00;;;13.50;93.30;;;;;;4991018;28;20085;-66
2022/05/13 01:48:50;;;;;;;6.55;2.50;;;13.50;93.30;;;;;;4991630;28;20050;-66
2022/05/13 01:51:16;;;;;;;8.85;2.47;;;13.50;93.40;;;;;;4996657;28;20045;-66
2022/05/13 01:53:43;;;;;;;5.40;1.73;;;13.50;93.50;;;;;;4996881;28;20069;-66
2022/05/13 01:56:09;;;;;;;7.65;2.28;;;13.40;93.60;;;;;;4993145;28;20391;-66
2022/05/13 01:58:35;;;;;;;6.07;2.28;;;13.40;93.70;;;;;;4994668;28;20038;-66
2022/05/13 02:01:04;;;;;;;7.50;2.75;;;13.40;93.90;;;;;;4994656;28;20037;-66
2022/05/13 02:03:45;;;;;;;9.52;2.63;;;13.40;94.00;;;;;;4994453;28;20023;-66
2022/05/13 02:06:19;;;;;;;7.25;3.15;;;13.40;94.30;;;;;;4994424;28;20065;-65
2022/05/13 02:08:47;;;;;;;7.82;2.70;;;13.40;94.60;;;;;;4995171;28;20054;-67
2022/05/13 02:11:14;;;;;;;7.45;2.70;;;13.40;94.70;;;;;;4994935;28;20033;-66
2022/05/13 02:13:40;;;;;;;6.25;2.30;;;13.40;94.90;;;;;;4994370;28;20031;-67
2022/05/13 02:16:06;;;;;;;6.65;2.58;;;13.30;95.10;;;;;;4995935;28;20487;-65
2022/05/13 02:18:33;;;;;;;8.25;2.88;;;13.30;95.30;;;;;;5003228;28;20026;-67
2022/05/13 02:20:59;;;;;;;5.60;2.60;;;13.40;95.30;;;;;;5004275;28;20023;-67
2022/05/13 02:23:26;;;;;;;6.78;2.58;;;13.30;95.40;;;;;;5007105;28;20094;-66
2022/05/13 02:25:58;;;;;;;5.60;2.53;;;13.20;95.60;;;;;;4994013;28;20038;-66
2022/05/13 02:28:25;;;;;;;7.10;2.60;;;13.20;95.80;;;;;;4992849;28;20398;-66
2022/05/13 02:30:50;;;;;;;7.32;2.72;;;13.20;95.80;;;;;;4994053;28;20027;-66
2022/05/13 02:33:16;;;;;;;7.75;3.10;;;13.20;95.80;;;;;;4994091;28;20044;-66
2022/05/13 02:35:42;;;;;;;6.00;2.60;;;13.10;96.00;;;;;;5002469;28;20033;-68
2022/05/13 02:38:11;;;;;;;9.75;2.97;;;13.10;96.00;;;;;;5004908;28;20467;-67
2022/05/13 02:43:21;;;;;;;12.20;4.50;;;13.10;96.20;;;;;;4994043;28;20038;-67
2022/05/13 02:45:47;;;;;;;8.45;3.28;;;13.10;96.40;;;;;;4993896;28;20423;-66
2022/05/13 02:48:14;;;;;;;8.02;2.83;;;13.20;96.30;;;;;;4999001;28;20038;-66
2022/05/13 02:50:40;;;;;;;6.55;2.30;;;13.30;96.30;;;;;;4993688;28;20052;-66
2022/05/13 02:53:07;;;;;;;6.53;2.30;;;13.40;95.80;;;;;;4993709;28;20523;-66
2022/05/13 02:55:33;;;;;;;8.77;2.10;;;13.50;94.80;;;;;;4995502;28;20030;-66
2022/05/13 02:57:59;;;;;;;10.07;2.10;;;13.60;94.20;;;;;;5004925;28;20033;-67
2022/05/13 03:00:25;;;;;;;8.68;1.70;;;13.70;93.40;;;;;;5004565;28;20125;-65
2022/05/13 03:02:51;;;;;;;6.15;1.70;;;13.80;92.90;;;;;;4993488;28;20109;-66
2022/05/13 03:05:17;;;;;;;7.22;2.08;;;13.90;92.50;;;;;;4993513;28;20030;-66
2022/05/13 03:07:43;;;;;;;6.57;1.63;;;13.90;92.20;;;;;;4992079;28;20026;-66
2022/05/13 03:10:09;;;;;;;4.85;1.58;;;14.00;92.10;;;;;;4997604;28;20038;-67
2022/05/13 03:12:35;;;;;;;6.53;1.77;;;14.00;92.10;;;;;;5006482;28;20026;-67
2022/05/13 03:15:02;;;;;;;6.90;1.70;;;14.10;92.00;;;;;;5006775;28;20061;-67
2022/05/13 03:17:28;;;;;;;5.50;1.52;;;14.00;91.90;;;;;;5006724;28;20026;-67
2022/05/13 03:19:55;;;;;;;4.70;1.50;;;14.10;91.80;;;;;;5005561;28;20077;-66
2022/05/13 03:22:21;;;;;;;6.95;1.38;;;14.10;91.70;;;;;;5006356;28;20026;-67
2022/05/13 03:24:47;;;;;;;7.63;1.73;;;14.10;91.80;;;;;;5002158;28;20027;-67
2022/05/13 03:27:13;;;;;;;7.65;2.15;;;14.00;91.80;;;;;;4994047;28;20034;-67
2022/05/13 03:29:39;;;;;;;8.13;1.65;;;14.00;91.80;;;;;;4995101;28;20106;-66
2022/05/13 03:32:07;;;;;;;6.47;1.50;;;14.10;91.80;;;;;;4993241;28;20030;-66
2022/05/13 03:34:33;;;;;;;9.02;2.90;;;14.10;91.80;;;;;;4993096;28;20027;-66
2022/05/13 03:36:59;;;;;;;7.57;2.90;;;14.00;91.90;;;;;;4992583;28;20026;-66
2022/05/13 03:39:25;;;;;;;8.52;3.20;;;14.10;92.00;;;;;;4992901;28;20084;-66
2022/05/13 03:41:51;;;;;;;7.28;1.85;;;14.10;92.00;;;;;;4994168;28;20022;-66
2022/05/13 03:44:18;;;;;;;8.43;2.10;;;14.10;92.10;;;;;;5004839;28;20036;-67
2022/05/13 03:46:44;;;;;;;9.05;2.22;;;13.90;92.00;;;;;;5005545;28;20044;-67
2022/05/13 03:49:10;;;;;;;8.43;2.15;;;14.00;92.00;;;;;;5001693;28;20458;-66
2022/05/13 03:51:36;;;;;;;9.93;1.65;;;14.00;91.90;;;;;;4992548;28;20034;-66
2022/05/13 03:54:03;;;;;;;7.50;2.05;;;13.90;92.00;;;;;;4992628;28;20154;-66
2022/05/13 03:56:29;;;;;;;5.68;2.00;;;13.90;92.10;;;;;;4992241;28;20041;-65
2022/05/13 03:58:56;;;;;;;5.13;1.83;;;13.90;92.00;;;;;;4992376;28;20030;-65
2022/05/13 04:01:22;;;;;;;8.80;2.90;;;13.90;92.10;;;;;;4997104;28;20090;-67
2022/05/13 04:03:48;;;;;;;5.90;2.20;;;13.90;92.10;;;;;;5005066;28;20471;-67
2022/05/13 04:09:01;;;;;;;6.45;2.08;;;13.90;92.10;;;;;;5001752;28;20709;-66
2022/05/13 04:11:37;;;;;;;7.97;1.95;;;13.90;92.20;;;;;;4992388;28;20376;-66
2022/05/13 04:16:50;;;;;;;7.30;2.00;;;13.90;92.40;;;;;;4991041;28;20034;-66
2022/05/13 04:19:17;;;;;;;8.73;1.70;;;13.90;92.50;;;;;;4991753;28;20113;-66
2022/05/13 04:21:44;;;;;;;6.60;1.75;;;13.90;92.50;;;;;;4992135;28;20173;-66
2022/05/13 04:24:14;;;;;;;5.72;1.60;;;13.90;92.60;;;;;;4992101;28;20076;-67
2022/05/13 04:26:40;;;;;;;7.75;2.10;;;13.90;92.60;;;;;;4999210;28;20026;-67
2022/05/13 04:29:06;;;;;;;9.52;2.17;;;13.90;92.70;;;;;;5004345;28;20030;-67
2022/05/13 04:31:36;;;;;;;7.72;2.20;;;13.90;92.70;;;;;;5003217;28;20034;-65
2022/05/13 04:34:02;;;;;;;9.32;1.90;;;13.90;92.80;;;;;;5004101;28;20050;-67
2022/05/13 04:36:28;;;;;;;9.23;2.10;;;13.90;92.70;;;;;;5002738;28;20022;-67
2022/05/13 04:38:55;;;;;;;9.30;2.03;;;13.90;93.00;;;;;;5003490;28;20037;-66
2022/05/13 04:44:07;;;;;;;9.15;2.38;;;13.90;93.10;;;;;;5004204;28;20088;-67
2022/05/13 04:46:34;;;;;;;12.13;2.50;;;13.80;93.00;;;;;;4996936;28;20491;-66
2022/05/13 04:49:00;;;;;;;8.68;2.45;;;13.80;93.20;;;;;;4992136;28;20026;-66
2022/05/13 04:51:26;;;;;;;10.32;2.80;;;13.80;93.30;;;;;;4991689;28;20038;-66
2022/05/13 04:53:54;;;;;;;8.45;2.47;;;13.80;93.70;;;;;;4991623;28;20033;-67
2022/05/13 04:56:22;;;;;;;11.95;2.90;;;13.90;93.60;;;;;;4991384;28;20034;-66
2022/05/13 04:58:48;;;;;;;12.23;4.32;;;13.90;93.60;;;;;;4991516;28;20089;-66
2022/05/13 05:01:17;;;;;;;10.73;2.90;;;14.00;93.50;;;;;;4991525;28;20041;-66
2022/05/13 05:03:44;;;;;;;17.33;3.67;;;14.00;93.50;;;;;;4991584;28;20049;-67
2022/05/13 05:06:11;;;;;;;13.70;4.50;;;14.00;93.50;;;;;;4991260;28;20045;-66
2022/05/13 05:08:37;;;;;;;9.82;3.70;;;14.00;93.50;;;;;;4991613;28;20042;-66
2022/05/13 05:11:05;;;;;;;10.05;2.88;;;14.10;93.50;;;;;;4991372;28;20030;-66
2022/05/13 05:13:37;;;;;;;10.13;3.47;;;14.10;93.60;;;;;;4991743;28;20046;-66
2022/05/13 05:16:05;;;;;;;8.63;2.92;;;14.10;93.50;;;;;;4991217;28;20089;-67
2022/05/13 05:18:33;;;;;;;11.10;2.78;;;14.10;93.60;;;;;;4991344;28;20030;-66
2022/05/13 05:21:00;;;;;;;12.45;3.47;;;14.00;93.70;;;;;;4991512;28;20454;-66
2022/05/13 05:23:33;;;;;;;12.27;3.83;;;14.00;93.80;;;;;;4991516;28;20027;-66
2022/05/13 05:26:00;;;;;;;12.90;3.40;;;14.10;93.70;;;;;;4993693;28;20395;-67
2022/05/13 05:28:27;;;;;;;14.15;3.05;;;14.10;93.70;;;;;;4995458;28;20416;-66
2022/05/13 05:30:55;;;;;;;16.70;3.33;;;14.10;93.80;;;;;;4997363;28;20034;-66
2022/05/13 05:33:21;;;;;;;12.98;4.60;;;14.10;93.80;;;;;;4995090;28;20031;-65
2022/05/13 05:35:47;;;;;;;9.27;3.40;;;14.00;93.90;;;;;;4994904;28;20022;-65
2022/05/13 05:38:13;;;;;;;12.00;3.47;;;14.00;94.00;;;;;;4995031;28;20042;-66
2022/05/13 05:40:40;;;;;;;13.13;3.67;;;14.00;94.10;;;;;;4994878;28;20029;-65
2022/05/13 05:43:09;;;;;;;15.77;3.03;;;14.00;94.10;;;;;;4995006;28;20366;-65
2022/05/13 05:45:37;;;;;;;;;;;14.00;94.30;;;;;;4998854;28;20133;-66
2022/05/13 05:48:04;;;;;;;11.23;3.05;;;14.00;94.30;;;;;;5000584;28;19994;-65
2022/05/13 05:50:30;;;;;;;11.63;3.33;;;14.00;94.40;;;;;;4997794;28;20022;-66
2022/05/13 05:52:56;;;;;;;14.73;3.17;;;14.00;94.20;;;;;;4994957;28;20034;-66
2022/05/13 05:58:21;;;;;;;10.35;2.97;;;14.10;94.20;;;;;;4961507;28;20403;-66
2022/05/13 06:00:50;;;;;;;14.63;3.70;;;14.10;94.20;;;;;;4994489;28;20027;-66
2022/05/13 06:03:17;;;;;;;10.90;2.63;;;14.20;94.10;;;;;;4994425;28;20125;-66
2022/05/13 06:05:46;;;;;;;9.48;3.20;;;14.20;94.10;;;;;;5004027;28;20049;-67
2022/05/13 06:08:12;;;;;;;10.40;3.50;;;14.20;93.90;;;;;;5007019;28;20088;-66
2022/05/13 06:10:38;;;;;;;11.60;3.95;;;14.30;94.00;;;;;;5003659;28;20121;-66
2022/05/13 06:13:05;;;;;;;10.80;2.97;;;14.30;94.40;;;;;;4994483;28;20026;-67
2022/05/13 06:15:31;;;;;;;11.07;3.17;;;14.30;94.10;;;;;;5016968;23;20034;-82
2022/05/13 06:17:57;;;;;;;11.30;3.13;;;14.40;93.80;;;;;;4974304;28;20039;-82
2022/05/13 06:20:29;;;;;;;12.27;3.22;;;14.40;93.80;;;;;;4974256;28;20422;-82
2022/05/13 06:22:55;;;;;;;13.50;3.40;;;14.40;94.10;;;;;;4973370;28;20038;-82
2022/05/13 06:25:22;;;;;;;10.25;2.97;;;14.40;93.60;;;;;;4974478;28;20093;-82
2022/05/13 06:27:50;;;;;;;13.60;3.28;;;14.50;93.60;;;;;;4974395;28;20452;-82
2022/05/13 06:30:26;;;;;;;12.98;3.97;;;14.40;93.50;;;;;;4972977;28;20031;-82
2022/05/13 06:32:53;;;;;;;12.10;3.38;;;14.50;93.50;;;;;;4974545;28;20031;-82
2022/05/13 06:35:19;;;;;;;14.13;3.35;;;14.50;93.40;;;;;;4974439;28;20106;-80
2022/05/13 06:37:45;;;;;;;11.07;2.60;;;14.60;93.40;;;;;;4974112;28;20109;-80
2022/05/13 06:40:11;;;;;;;10.45;3.45;;;14.70;93.40;;;;;;4974047;28;20111;-81
2022/05/13 06:42:37;;;;;;;13.65;3.33;;;14.80;93.10;;;;;;4974454;28;20407;-82
2022/05/13 06:45:05;;;;;;;12.93;2.30;;;14.90;92.90;;;;;;4972729;28;20035;-82
2022/05/13 06:47:32;;;;;;;9.15;2.65;;;14.90;92.80;;;;;;4972865;28;20426;-82
2022/05/13 06:50:03;;;;;;;9.77;2.40;;;14.90;92.70;;;;;;4973920;28;20483;-82
2022/05/13 06:52:29;;;;;;;11.38;2.33;;;15.00;92.70;;;;;;4973979;28;20042;-80
2022/05/13 06:54:55;;;;;;;11.35;2.63;;;15.00;92.70;;;;;;4974041;28;20030;-80
2022/05/13 06:57:21;;;;;;;7.55;2.10;;;14.90;92.70;;;;;;4973635;28;20110;-80
2022/05/13 06:59:46;;;;;;;8.65;2.20;;;14.90;92.50;;;;;;4973714;28;20125;-80
2022/05/13 07:02:12;;;;;;;9.90;2.25;;;15.00;92.60;;;;;;4973835;28;20113;-80
2022/05/13 07:04:38;;;;;;;11.90;2.50;;;15.00;92.70;;;;;;4973919;28;20499;-80
2022/05/13 07:07:04;;;;;;;10.57;2.40;;;15.00;92.80;;;;;;4973333;28;20512;-80
2022/05/13 07:09:29;;;;;;;12.30;2.83;;;15.00;92.80;;;;;;4973490;28;20046;-80
2022/05/13 07:11:55;;;;;;;13.23;4.22;;;15.00;92.70;;;;;;4973606;28;20042;-80
2022/05/13 07:14:21;;;;;;;9.75;2.40;;;15.00;93.00;;;;;;4973756;28;20023;-80
2022/05/13 07:16:47;;;;;;;11.23;3.20;;;15.00;92.90;;;;;;4973360;28;20600;-80
2022/05/13 07:19:13;;;;;;;7.28;2.35;;;15.10;92.80;;;;;;4973564;28;20439;-80
2022/05/13 07:21:39;;;;;;;9.45;2.70;;;15.10;92.90;;;;;;4973448;28;20031;-80
2022/05/13 07:24:05;;;;;;;7.22;2.20;;;15.10;92.80;;;;;;4973488;28;20046;-80
2022/05/13 07:26:31;;;;;;;8.55;2.20;;;15.10;92.80;;;;;;4972999;28;20041;-81
2022/05/13 07:28:56;;;;;;;7.07;2.13;;;15.10;92.80;;;;;;4973451;28;20035;-80
2022/05/13 07:31:22;;;;;;;8.05;2.70;;;15.10;93.00;;;;;;4973492;28;20023;-80
2022/05/13 07:33:48;;;;;;;9.85;2.50;;;15.20;93.00;;;;;;4973393;28;20491;-80
2022/05/13 07:36:14;;;;;;;10.52;2.45;;;15.20;92.90;;;;;;4972866;28;20031;-80
2022/05/13 07:41:16;;;;;;;8.68;2.60;;;15.20;92.90;;;;;;4972979;28;20039;-80
2022/05/13 07:41:26;;;;;;;9.85;3.47;;;15.30;92.80;;;;;;4972930;28;20058;-80
2022/05/13 07:43:52;;;;;;;11.65;2.42;;;15.30;92.70;;;;;;4973065;28;20478;-80
2022/05/13 07:46:18;;;;;;;13.20;3.70;;;15.40;92.70;;;;;;4972782;28;20151;-80
2022/05/13 07:48:44;;;;;;;9.93;3.22;;;15.40;92.70;;;;;;4971713;28;20238;-81
2022/05/13 07:51:10;;;;;;;10.07;2.90;;;15.50;92.50;;;;;;4972912;28;20023;-80
2022/05/13 07:53:36;;;;;;;11.65;2.47;;;15.50;92.40;;;;;;4970906;28;20034;-81
2022/05/13 07:56:03;;;;;;;10.80;2.28;;;15.50;92.40;;;;;;4972512;28;20076;-81
2022/05/13 07:58:29;;;;;;;9.80;2.78;;;15.60;92.50;;;;;;4972861;28;20031;-80
2022/05/13 08:00:55;;;;;;;10.38;2.50;;;15.60;92.50;;;;;;4971555;28;20487;-81
2022/05/13 08:03:22;;;;;;;8.38;3.08;;;15.60;92.60;;;;;;4972761;28;20039;-80
2022/05/13 08:05:50;;;;;;;14.15;2.55;;;15.60;92.50;;;;;;4972840;28;20039;-81
2022/05/13 08:08:24;;;;;;;10.63;2.33;;;15.70;92.70;;;;;;4972610;28;20037;-81
2022/05/13 08:10:54;;;;;;;10.32;2.20;;;15.70;92.70;;;;;;4971172;28;20057;-81
2022/05/13 08:13:20;;;;;;;8.65;2.60;;;15.80;92.40;;;;;;4972661;28;20434;-81
2022/05/13 08:15:46;;;;;;;10.70;3.17;;;15.90;92.50;;;;;;4972230;28;20034;-81
2022/05/13 08:18:13;;;;;;;8.48;3.30;;;15.90;92.30;;;;;;4972507;28;20106;-81
2022/05/13 08:20:40;;;;;;;8.32;2.65;;;16.00;92.30;;;;;;4972159;28;20114;-80
2022/05/13 08:23:06;;;;;;;12.48;2.80;;;15.90;92.00;;;;;;4972447;28;20483;-81
2022/05/13 08:25:32;;;;;;;7.78;2.15;;;15.90;92.10;;;;;;4972491;28;20121;-81
2022/05/13 08:27:58;;;;;;;13.00;2.88;;;15.90;92.20;;;;;;4975197;28;20499;-81
2022/05/13 08:30:24;;;;;;;9.02;3.08;;;15.80;92.20;;;;;;4975835;28;20041;-80
2022/05/13 08:32:50;;;;;;;10.90;2.50;;;15.90;92.20;;;;;;4970994;28;20031;-80
2022/05/13 08:35:16;;;;;;;11.52;2.67;;;15.90;92.10;;;;;;4972009;28;20041;-80
2022/05/13 08:37:45;;;;;;;9.93;2.38;;;16.00;91.70;;;;;;4972023;28;20026;-80
2022/05/13 08:40:33;;;;;;;11.32;2.58;;;16.00;91.50;;;;;;4972033;28;20077;-81
2022/05/13 08:43:09;;;;;;;12.65;2.63;;;16.10;91.60;;;;;;4951418;28;20050;-81
2022/05/13 08:45:36;;;;;;;7.65;2.08;;;16.10;91.50;;;;;;4972032;28;20030;-81
2022/05/13 08:48:07;;;;;;;10.95;2.28;;;16.10;91.40;;;;;;4972216;28;20027;-80
2022/05/13 08:50:37;;;;;;;8.88;2.30;;;16.20;91.10;;;;;;4971831;28;20427;-81
2022/05/13 08:53:29;;;;;;;6.05;2.10;;;16.20;91.00;;;;;;4972026;28;20031;-81
2022/05/13 08:56:07;;;;;;;11.63;2.70;;;16.30;90.70;;;;;;4971782;28;20042;-81
2022/05/13 08:58:48;;;;;;;9.63;2.22;;;16.30;90.50;;;;;;4972089;28;20034;-80
2022/05/13 09:01:23;;;;;;;9.07;2.03;;;16.30;90.50;;;;;;4972216;28;20035;-81
2022/05/13 09:03:59;;;;;;;6.15;2.10;;;16.30;90.50;;;;;;4972426;28;20058;-80
2022/05/13 09:06:48;;;;;;;7.13;2.00;;;16.30;90.80;;;;;;4975644;28;20364;-81
2022/05/13 09:09:13;;;;;;;;;;;16.20;90.90;;;;;;4976349;28;20121;-81
2022/05/13 09:12:07;;;;;;;9.32;2.40;;;16.20;90.80;;;;;;4975922;28;20433;-81
2022/05/13 09:14:42;;;;;;;12.50;2.40;;;16.30;91.00;;;;;;4975913;28;20034;-81
2022/05/13 09:17:13;;;;;;;5.82;2.13;;;16.30;91.10;;;;;;4975374;28;20034;-81
2022/05/13 09:20:02;;;;;;;11.35;2.25;;;16.40;89.60;;;;;;4975714;28;20023;-81
2022/05/13 09:22:33;;;;;;;11.20;2.10;;;16.40;88.90;;;;;;4970274;28;20086;-80
2022/05/13 09:24:59;;;;;;;9.32;2.40;;;16.40;89.20;;;;;;4975700;28;20674;-80
2022/05/13 09:27:25;;;;;;;6.63;2.13;;;16.50;88.70;;;;;;4975144;28;20066;-80
2022/05/13 09:29:50;;;;;;;10.88;2.53;;;16.60;88.30;;;;;;4975574;28;20034;-80
2022/05/13 09:32:29;;;;;;;14.02;3.17;;;16.60;88.80;;;;;;4975660;28;20031;-80
2022/05/13 09:35:07;;;;;;;11.07;2.47;;;16.60;89.00;;;;;;4975691;28;20034;-81
2022/05/13 09:37:39;;;;;;;9.55;2.08;;;16.70;89.20;;;;;;4975287;28;20027;-81
2022/05/13 09:40:04;;;;;;;11.57;2.53;;;16.70;88.60;;;;;;4975159;28;20479;-81
2022/05/13 09:42:42;;;;;;;5.35;2.08;;;16.70;89.30;;;;;;4975230;28;20029;-81
2022/05/13 09:45:22;;;;;;;12.43;2.40;;;16.80;88.70;;;;;;4974145;28;20057;-81
2022/05/13 09:48:06;;;;;;;9.13;2.03;;;16.90;88.10;;;;;;4975066;28;20065;-81
2022/05/13 09:50:38;;;;;;;10.15;2.42;;;17.10;87.90;;;;;;4957838;28;20417;-80
2022/05/13 09:53:04;;;;;;;14.65;6.72;;;17.10;86.90;;;;;;4973860;28;20041;-80
2022/05/13 09:55:40;;;;;;;8.60;2.40;;;17.10;87.20;;;;;;4975123;28;20082;-80
2022/05/13 09:58:15;;;;;;;9.27;1.98;;;17.20;85.40;;;;;;4975139;28;20299;-80
2022/05/13 10:00:42;;;;;;;9.77;2.40;;;17.20;84.50;;;;;;4974732;28;20030;-80
2022/05/13 10:03:24;;;;;;;5.28;1.70;;;17.20;84.00;;;;;;4975017;28;20561;-80
2022/05/13 10:06:08;;;;;;;8.80;2.83;;;17.10;83.90;;;;;;4973510;28;20030;-81
2022/05/13 10:08:57;;;;;;;9.55;3.35;;;17.00;85.70;;;;;;4974668;28;20117;-80
2022/05/13 10:14:31;;;;;;;11.23;2.40;;;16.90;86.60;;;;;;4974948;28;20035;-80
2022/05/13 10:17:14;;;;;;;14.73;2.72;;;16.90;87.00;;;;;;4973832;28;20395;-81
2022/05/13 10:20:03;;;;;;;7.13;1.95;;;16.90;86.90;;;;;;4974299;28;20038;-81
2022/05/13 10:22:38;;;;;;;8.30;1.95;;;16.80;85.60;;;;;;4974666;28;20540;-81
2022/05/13 10:25:08;;;;;;;8.38;2.22;;;16.80;86.20;;;;;;4974821;28;20034;-81
2022/05/13 10:27:44;;;;;;;8.18;2.53;;;16.80;86.50;;;;;;4974208;28;20491;-81
2022/05/13 10:30:21;;;;;;;12.07;3.33;;;16.90;86.40;;;;;;4974459;28;20042;-81
2022/05/13 10:33:00;;;;;;;5.88;2.47;;;16.90;87.50;;;;;;4974539;28;20114;-81
2022/05/13 10:35:33;;;;;;;6.35;1.90;;;17.00;86.00;;;;;;4974414;28;20027;-81
2022/05/13 10:38:09;;;;;;;10.68;2.30;;;17.00;86.20;;;;;;4974692;28;20381;-81
2022/05/13 10:40:40;;;;;;;9.18;2.60;;;17.10;85.80;;;;;;4974057;28;20038;-81
2022/05/13 10:43:28;;;;;;;8.80;2.45;;;17.10;86.60;;;;;;4974305;28;20035;-81
2022/05/13 10:46:03;;;;;;;7.68;1.95;;;17.20;86.30;;;;;;4974129;28;20030;-81
2022/05/13 10:48:30;;;;;;;7.75;2.33;;;17.20;86.00;;;;;;4974101;28;20069;-81
2022/05/13 10:51:09;;;;;;;6.13;2.22;;;17.30;84.80;;;;;;4974135;28;20031;-81
2022/05/13 10:54:07;;;;;;;7.20;2.60;;;17.40;84.50;;;;;;4974210;28;20372;-81
2022/05/13 10:56:53;;;;;;;11.52;3.65;;;17.30;84.30;;;;;;4973787;28;20034;-80
2022/05/13 10:59:59;;;;;;;8.18;2.13;;;17.40;84.40;;;;;;4972636;28;20407;-81
2022/05/13 11:02:49;;;;;;;6.15;2.30;;;17.40;84.30;;;;;;4973833;28;20041;-81
2022/05/13 11:05:18;;;;;;;7.70;2.85;;;17.30;83.90;;;;;;4973685;28;20031;-81
2022/05/13 11:08:12;;;;;;;7.85;3.03;;;17.40;83.20;;;;;;4973523;28;20442;-81
2022/05/13 11:10:52;;;;;;;9.60;2.30;;;17.40;83.10;;;;;;4973108;28;20039;-81
2022/05/13 11:13:50;;;;;;;5.38;2.25;;;17.50;82.60;;;;;;4973787;28;20026;-81
2022/05/13 11:16:28;;;;;;;11.23;3.30;;;17.60;81.80;;;;;;4973291;28;20438;-81
2022/05/13 11:19:15;;;;;;;7.05;2.70;;;17.70;81.10;;;;;;4973692;28;20113;-81
2022/05/13 11:21:59;;;;;;;8.98;2.50;;;17.70;81.60;;;;;;4973751;28;20093;-81
2022/05/13 11:27:50;;;;;;;7.20;2.22;;;17.80;81.80;;;;;;4972228;28;20053;-81
2022/05/13 11:30:42;;;;;;;5.28;2.10;;;17.90;81.00;;;;;;4972981;28;20039;-81
2022/05/13 11:33:14;;;;;;;7.95;2.20;;;17.90;81.20;;;;;;4973302;28;20101;-81
2022/05/13 11:35:44;;;;;;;7.57;3.35;;;17.90;80.40;;;;;;4972989;28;20034;-80
2022/05/13 11:38:44;;;;;;;8.55;2.65;;;17.90;80.10;;;;;;4972067;28;20069;-81
2022/05/13 11:41:15;;;;;;;9.05;2.55;;;17.90;81.00;;;;;;4932128;29;20023;-80
2022/05/13 11:44:02;;;;;;;7.05;2.47;;;17.90;80.70;;;;;;4964967;28;20050;-81
2022/05/13 11:46:48;;;;;;;7.10;2.30;;;18.00;80.10;;;;;;4972889;28;20027;-81
2022/05/13 11:49:26;;;;;;;6.60;2.30;;;18.00;80.50;;;;;;4973297;28;20578;-81
2022/05/13 11:51:54;;;;;;;8.10;3.33;;;18.10;80.70;;;;;;4972874;28;20527;-81
2022/05/13 11:54:23;;;;;;;11.57;3.67;;;18.10;78.80;;;;;;4972898;28;20027;-81
2022/05/13 11:57:10;;;;;;;12.38;3.40;;;18.20;79.80;;;;;;4972643;28;20483;-81
2022/05/13 11:59:46;;;;;;;9.63;3.00;;;18.20;79.50;;;;;;4972402;28;20179;-81
2022/05/13 12:02:33;;;;;;;17.13;3.63;;;18.20;79.00;;;;;;4973089;28;20126;-81
2022/05/13 12:05:16;;;;;;;9.13;3.05;;;18.20;78.60;;;;;;4972743;28;20026;-81
2022/05/13 12:08:02;;;;;;;11.35;3.72;;;18.20;78.10;;;;;;4972515;28;20034;-81
2022/05/13 12:10:59;;;;;;;18.05;4.47;;;18.30;78.20;;;;;;4972573;28;20049;-81
2022/05/13 12:13:42;;;;;;;11.70;3.35;;;18.20;78.50;;;;;;4971538;28;20524;-81
2022/05/13 12:16:32;;;;;;;13.40;4.07;;;18.20;79.10;;;;;;4972019;28;20039;-81
2022/05/13 12:19:31;;;;;;;11.68;2.95;;;18.20;78.50;;;;;;4972314;28;20019;-81
2022/05/13 12:22:34;;;;;;;13.27;3.25;;;18.30;79.40;;;;;;4971291;28;20546;-81
2022/05/13 12:25:06;;;;;;;11.85;3.17;;;18.40;78.90;;;;;;4972291;28;20394;-81
2022/05/13 12:27:36;;;;;;;11.45;3.05;;;18.50;78.40;;;;;;4970827;28;20399;-81
2022/05/13 12:30:29;;;;;;;8.05;3.10;;;18.60;77.60;;;;;;4971927;28;20038;-81
2022/05/13 12:32:55;;;;;;;10.10;3.85;;;18.60;78.40;;;;;;4972165;28;20073;-81
2022/05/13 12:38:26;;;;;;;6.70;2.90;;;18.80;76.20;;;;;;4971951;28;20122;-81
2022/05/13 12:41:05;;;;;;;5.85;2.38;;;18.70;76.50;;;;;;4972135;28;20098;-81
2022/05/13 12:44:05;;;;;;;6.80;2.47;;;18.70;77.30;;;;;;4972081;28;20031;-81
2022/05/13 12:46:47;;;;;;;10.10;2.78;;;18.70;76.80;;;;;;4971722;28;20561;-81
2022/05/13 12:49:24;;;;;;;5.75;2.58;;;18.70;77.20;;;;;;4971908;28;20038;-81
2022/05/13 12:52:04;;;;;;;7.63;3.35;;;18.60;76.00;;;;;;4971866;28;20035;-81
2022/05/13 12:54:38;;;;;;;11.52;3.75;;;18.60;75.90;;;;;;4972022;28;20039;-81
2022/05/13 12:57:27;;;;;;;6.78;3.03;;;18.70;76.70;;;;;;4971770;28;20476;-81
2022/05/13 12:59:54;;;;;;;9.60;3.30;;;18.80;75.90;;;;;;4971651;28;20109;-81
2022/05/13 13:02:26;;;;;;;6.38;2.38;;;18.90;75.70;;;;;;4972198;28;20037;-81
2022/05/13 13:04:57;;;;;;;9.00;2.90;;;18.90;75.80;;;;;;4971931;28;20038;-81
2022/05/13 13:07:25;;;;;;;23.48;3.65;;;18.90;75.80;;;;;;4971695;28;20082;-81
2022/05/13 13:09:52;;;;;;;8.57;2.60;;;18.90;77.00;;;;;;4971649;28;20041;-81
2022/05/13 13:12:26;;;;;;;7.07;2.38;;;19.00;75.70;;;;;;4971726;28;20034;-80
2022/05/13 13:15:01;;;;;;;7.80;2.50;;;19.10;75.50;;;;;;4972027;28;20080;-81
2022/05/13 13:17:45;;;;;;;11.95;2.58;;;19.10;75.40;;;;;;4971490;28;20079;-81
2022/05/13 13:20:14;;;;;;;12.95;2.60;;;19.20;75.30;;;;;;4971610;28;20091;-81
2022/05/13 13:22:43;;;;;;;7.45;3.00;;;19.30;74.90;;;;;;4971656;28;20034;-81
2022/05/13 13:25:29;;;;;;;7.50;2.40;;;19.30;75.10;;;;;;4970346;28;20399;-81
2022/05/13 13:27:58;;;;;;;8.18;2.17;;;19.30;74.60;;;;;;4971537;28;20454;-81